DLH456 EDDF-KLAX
Flight info
| Callsign | DLH456 |
|---|---|
| Flight time | N/A |
| Altitude | 34000 |
| Route | OBOKA4G OBOKA Z28 DIBIR DCT BUDIP DCT ALFEN DCT MIMVA L602 NALAX L46 GETNO DCT KUGUR DCT BILTO/M082F340 NATA DORYY/N0479F340 DCT TEALS DCT YGL DCT YQT DCT KP12I DCT KP06G DCT KP81A DCT KD66U DCT KU54Q DCT BAWER DCT LAKRR Q73 HAKMN MDNYT2 |
| Aircraft | B748/H-SADE2E3GHIJ3J4J5M1P2RWXYZ/LB1D1 |
Departure
| Time | N/A |
|---|---|
| Airport | Frankfurt Main Airport (EDDF) |
Arrival
| Time | 2026-05-04 00:09 |
|---|---|
| Airport | Los Angeles International Airport (KLAX) |
| Time | Latitude | Longitude | Altitude | Speed | Heading |
|---|---|---|---|---|---|
| 2026-05-03 21:48 | 42.81024 | -101.78218 | 37937 ft | 422 kts | 247° |
| 2026-05-03 21:48 | 42.79625 | -101.81721 | 37933 ft | 421 kts | 246° |
| 2026-05-03 21:49 | 42.76831 | -101.88702 | 37932 ft | 419 kts | 246° |
| 2026-05-03 21:49 | 42.74029 | -101.95690 | 37934 ft | 425 kts | 246° |
| 2026-05-03 21:50 | 42.71143 | -102.02866 | 37947 ft | 439 kts | 246° |
| 2026-05-03 21:50 | 42.69666 | -102.06533 | 38083 ft | 442 kts | 246° |
| 2026-05-03 21:50 | 42.68187 | -102.10198 | 38357 ft | 442 kts | 246° |
| 2026-05-03 21:51 | 42.66707 | -102.13865 | 38622 ft | 443 kts | 246° |
| 2026-05-03 21:51 | 42.65223 | -102.17533 | 38845 ft | 444 kts | 246° |
| 2026-05-03 21:51 | 42.63735 | -102.21209 | 39050 ft | 444 kts | 246° |
| 2026-05-03 21:51 | 42.62244 | -102.24888 | 39248 ft | 445 kts | 246° |
| 2026-05-03 21:52 | 42.60749 | -102.28570 | 39413 ft | 447 kts | 246° |
| 2026-05-03 21:52 | 42.59247 | -102.32266 | 39562 ft | 447 kts | 246° |
| 2026-05-03 21:52 | 42.57742 | -102.35963 | 39733 ft | 448 kts | 246° |
| 2026-05-03 21:52 | 42.56233 | -102.39667 | 39898 ft | 449 kts | 246° |
| 2026-05-03 21:53 | 42.53208 | -102.47077 | 39942 ft | 449 kts | 245° |
| 2026-05-03 21:53 | 42.50181 | -102.54472 | 39945 ft | 448 kts | 245° |
| 2026-05-03 21:54 | 42.47160 | -102.61834 | 39941 ft | 446 kts | 245° |
| 2026-05-03 21:54 | 42.44163 | -102.69121 | 39942 ft | 446 kts | 245° |
| 2026-05-03 21:55 | 42.41141 | -102.76447 | 39944 ft | 446 kts | 245° |
| 2026-05-03 21:55 | 42.38973 | -102.81695 | 39945 ft | 446 kts | 245° |
| 2026-05-03 21:56 | 42.35942 | -102.89012 | 39946 ft | 446 kts | 245° |
| 2026-05-03 21:56 | 42.32910 | -102.96316 | 39950 ft | 445 kts | 245° |
| 2026-05-03 21:57 | 42.29879 | -103.03597 | 39951 ft | 444 kts | 245° |
| 2026-05-03 21:57 | 42.26845 | -103.10868 | 39952 ft | 444 kts | 245° |
| 2026-05-03 21:58 | 42.23808 | -103.18129 | 39953 ft | 444 kts | 245° |
| 2026-05-03 21:58 | 42.20767 | -103.25380 | 39953 ft | 444 kts | 245° |
| 2026-05-03 21:59 | 42.17727 | -103.32613 | 39959 ft | 442 kts | 245° |
| 2026-05-03 21:59 | 42.14689 | -103.39823 | 39958 ft | 443 kts | 245° |
| 2026-05-03 22:00 | 42.11643 | -103.47032 | 39958 ft | 443 kts | 245° |
| 2026-05-03 22:00 | 42.08594 | -103.54234 | 39958 ft | 442 kts | 245° |
| 2026-05-03 22:01 | 42.05546 | -103.61414 | 39958 ft | 442 kts | 245° |
| 2026-05-03 22:01 | 42.02493 | -103.68589 | 39958 ft | 442 kts | 245° |
| 2026-05-03 22:02 | 41.99433 | -103.75762 | 39957 ft | 442 kts | 245° |
| 2026-05-03 22:02 | 41.96370 | -103.82925 | 39957 ft | 442 kts | 245° |
| 2026-05-03 22:03 | 41.93318 | -103.90046 | 39956 ft | 443 kts | 244° |
| 2026-05-03 22:03 | 41.90216 | -103.97265 | 39964 ft | 444 kts | 244° |
| 2026-05-03 22:04 | 41.87146 | -104.04394 | 39966 ft | 444 kts | 244° |
| 2026-05-03 22:04 | 41.84050 | -104.11566 | 39969 ft | 444 kts | 244° |
| 2026-05-03 22:05 | 41.80948 | -104.18732 | 39973 ft | 444 kts | 244° |
| 2026-05-03 22:05 | 41.77843 | -104.25890 | 39983 ft | 444 kts | 244° |
| 2026-05-03 22:06 | 41.74731 | -104.33046 | 39987 ft | 444 kts | 244° |
| 2026-05-03 22:06 | 41.71618 | -104.40188 | 39990 ft | 444 kts | 244° |
| 2026-05-03 22:07 | 41.68501 | -104.47321 | 39992 ft | 444 kts | 244° |
| 2026-05-03 22:07 | 41.65382 | -104.54445 | 39994 ft | 444 kts | 244° |
| 2026-05-03 22:08 | 41.63619 | -104.58462 | 39996 ft | 444 kts | 244° |
| 2026-05-03 22:08 | 41.60490 | -104.65581 | 40006 ft | 443 kts | 244° |
| 2026-05-03 22:09 | 41.57376 | -104.72648 | 40016 ft | 441 kts | 244° |
| 2026-05-03 22:10 | 41.52702 | -104.83224 | 40019 ft | 441 kts | 243° |
| 2026-05-03 22:10 | 41.49579 | -104.90270 | 40020 ft | 441 kts | 243° |
| 2026-05-03 22:11 | 41.46450 | -104.97312 | 40021 ft | 441 kts | 243° |
| 2026-05-03 22:11 | 41.43306 | -105.04377 | 40008 ft | 448 kts | 243° |
| 2026-05-03 22:12 | 41.40097 | -105.11564 | 40021 ft | 454 kts | 242° |
| 2026-05-03 22:12 | 41.36867 | -105.18782 | 40028 ft | 453 kts | 242° |
| 2026-05-03 22:13 | 41.33645 | -105.25966 | 40037 ft | 451 kts | 242° |
| 2026-05-03 22:13 | 41.30428 | -105.33121 | 40047 ft | 450 kts | 243° |
| 2026-05-03 22:14 | 41.27217 | -105.40247 | 40057 ft | 448 kts | 243° |
| 2026-05-03 22:14 | 41.24040 | -105.47281 | 40078 ft | 446 kts | 242° |
| 2026-05-03 22:15 | 41.20847 | -105.54335 | 40079 ft | 445 kts | 242° |
| 2026-05-03 22:15 | 41.17632 | -105.61421 | 40080 ft | 445 kts | 242° |
| 2026-05-03 22:16 | 41.14481 | -105.68428 | 40081 ft | 445 kts | 243° |
| 2026-05-03 22:16 | 41.11280 | -105.75459 | 40084 ft | 446 kts | 242° |
| 2026-05-03 22:17 | 41.08057 | -105.82485 | 40088 ft | 446 kts | 242° |
| 2026-05-03 22:17 | 41.04829 | -105.89506 | 40096 ft | 446 kts | 242° |
| 2026-05-03 22:18 | 41.01605 | -105.96510 | 40112 ft | 445 kts | 242° |
| 2026-05-03 22:18 | 40.98387 | -106.03463 | 40107 ft | 440 kts | 242° |
| 2026-05-03 22:19 | 40.95143 | -106.10319 | 40116 ft | 440 kts | 241° |
| 2026-05-03 22:19 | 40.91894 | -106.17172 | 40126 ft | 440 kts | 241° |
| 2026-05-03 22:20 | 40.88641 | -106.24020 | 40135 ft | 439 kts | 241° |
| 2026-05-03 22:20 | 40.86191 | -106.29167 | 40138 ft | 439 kts | 241° |
| 2026-05-03 22:21 | 40.82940 | -106.35986 | 40139 ft | 438 kts | 241° |
| 2026-05-03 22:21 | 40.79719 | -106.42822 | 40133 ft | 439 kts | 242° |
| 2026-05-03 22:22 | 40.76502 | -106.49661 | 40119 ft | 439 kts | 241° |
| 2026-05-03 22:22 | 40.73265 | -106.56483 | 40099 ft | 439 kts | 241° |
| 2026-05-03 22:23 | 40.70016 | -106.63296 | 40080 ft | 439 kts | 241° |
| 2026-05-03 22:23 | 40.66759 | -106.70104 | 40067 ft | 439 kts | 241° |
| 2026-05-03 22:24 | 40.63500 | -106.76898 | 40083 ft | 439 kts | 241° |
| 2026-05-03 22:24 | 40.60228 | -106.83701 | 40061 ft | 440 kts | 241° |
| 2026-05-03 22:25 | 40.56955 | -106.90492 | 40064 ft | 439 kts | 241° |
| 2026-05-03 22:25 | 40.53676 | -106.97280 | 40072 ft | 440 kts | 241° |
| 2026-05-03 22:26 | 40.50392 | -107.04064 | 40077 ft | 440 kts | 240° |
| 2026-05-03 22:26 | 40.47099 | -107.10851 | 40082 ft | 441 kts | 240° |
| 2026-05-03 22:27 | 40.43818 | -107.17599 | 40085 ft | 441 kts | 240° |
| 2026-05-03 22:27 | 40.40511 | -107.24384 | 40085 ft | 441 kts | 240° |
| 2026-05-03 22:28 | 40.37198 | -107.31169 | 40082 ft | 441 kts | 240° |
| 2026-05-03 22:28 | 40.33881 | -107.37946 | 40079 ft | 441 kts | 240° |
| 2026-05-03 22:29 | 40.30562 | -107.44712 | 40079 ft | 441 kts | 240° |
| 2026-05-03 22:29 | 40.27241 | -107.51469 | 40079 ft | 441 kts | 240° |
| 2026-05-03 22:30 | 40.23912 | -107.58226 | 40080 ft | 441 kts | 240° |
| 2026-05-03 22:30 | 40.20581 | -107.64973 | 40082 ft | 441 kts | 240° |
| 2026-05-03 22:31 | 40.17249 | -107.71708 | 40085 ft | 441 kts | 240° |
| 2026-05-03 22:31 | 40.13914 | -107.78434 | 40087 ft | 441 kts | 240° |
| 2026-05-03 22:32 | 40.10571 | -107.85162 | 40088 ft | 443 kts | 240° |
| 2026-05-03 22:32 | 40.07179 | -107.91973 | 40088 ft | 452 kts | 240° |
| 2026-05-03 22:33 | 40.04614 | -107.97115 | 40088 ft | 458 kts | 240° |
| 2026-05-03 22:33 | 40.01117 | -108.04111 | 40084 ft | 461 kts | 240° |
| 2026-05-03 22:34 | 39.97616 | -108.11098 | 40077 ft | 460 kts | 239° |
| 2026-05-03 22:34 | 39.94110 | -108.18081 | 40071 ft | 461 kts | 239° |
| 2026-05-03 22:35 | 39.90594 | -108.25068 | 40064 ft | 461 kts | 239° |
| 2026-05-03 22:35 | 39.87066 | -108.32064 | 40058 ft | 462 kts | 239° |
| 2026-05-03 22:36 | 39.83535 | -108.39048 | 40053 ft | 462 kts | 239° |
| 2026-05-03 22:36 | 39.80020 | -108.45986 | 40049 ft | 462 kts | 239° |
| 2026-05-03 22:37 | 39.76456 | -108.53007 | 40046 ft | 462 kts | 239° |
| 2026-05-03 22:37 | 39.72933 | -108.59930 | 40045 ft | 462 kts | 239° |
| 2026-05-03 22:38 | 39.69381 | -108.66896 | 40044 ft | 462 kts | 239° |
| 2026-05-03 22:38 | 39.65826 | -108.73853 | 40043 ft | 462 kts | 239° |
| 2026-05-03 22:39 | 39.62264 | -108.80806 | 40043 ft | 463 kts | 239° |
| 2026-05-03 22:39 | 39.58701 | -108.87749 | 40043 ft | 463 kts | 239° |
| 2026-05-03 22:40 | 39.55134 | -108.94682 | 40035 ft | 461 kts | 239° |
| 2026-05-03 22:40 | 39.51574 | -109.01588 | 40037 ft | 460 kts | 239° |
| 2026-05-03 22:41 | 39.48018 | -109.08470 | 40028 ft | 460 kts | 239° |
| 2026-05-03 22:41 | 39.44452 | -109.15358 | 40027 ft | 461 kts | 239° |
| 2026-05-03 22:42 | 39.40861 | -109.22281 | 40014 ft | 467 kts | 238° |
| 2026-05-03 22:42 | 39.37204 | -109.29311 | 40021 ft | 474 kts | 238° |
| 2026-05-03 22:42 | 39.35408 | -109.32756 | 40386 ft | 453 kts | 239° |
| 2026-05-03 22:43 | 39.33648 | -109.36134 | 40123 ft | 455 kts | 238° |
| 2026-05-03 22:43 | 39.31875 | -109.39532 | 39954 ft | 458 kts | 238° |
| 2026-05-03 22:43 | 39.30091 | -109.42945 | 39917 ft | 460 kts | 238° |
| 2026-05-03 22:44 | 39.26489 | -109.49827 | 39906 ft | 464 kts | 238° |
| 2026-05-03 22:44 | 39.23479 | -109.55567 | 39905 ft | 465 kts | 238° |
| 2026-05-03 22:45 | 39.19969 | -109.62251 | 39921 ft | 470 kts | 237° |
| 2026-05-03 22:45 | 39.16284 | -109.69301 | 39929 ft | 478 kts | 237° |
| 2026-05-03 22:46 | 39.12543 | -109.76406 | 39922 ft | 478 kts | 237° |
| 2026-05-03 22:46 | 39.08806 | -109.83449 | 39913 ft | 474 kts | 237° |
| 2026-05-03 22:47 | 39.05102 | -109.90415 | 39902 ft | 470 kts | 237° |
| 2026-05-03 22:47 | 39.01427 | -109.97316 | 39893 ft | 466 kts | 237° |
| 2026-05-03 22:48 | 38.97703 | -110.04138 | 39901 ft | 468 kts | 235° |
| 2026-05-03 22:48 | 38.93735 | -110.10873 | 39929 ft | 477 kts | 234° |
| 2026-05-03 22:49 | 38.89706 | -110.17718 | 39950 ft | 485 kts | 234° |
| 2026-05-03 22:49 | 38.85616 | -110.24687 | 39955 ft | 491 kts | 234° |
| 2026-05-03 22:50 | 38.81536 | -110.31637 | 39954 ft | 490 kts | 234° |
| 2026-05-03 22:50 | 38.77476 | -110.38601 | 39953 ft | 482 kts | 234° |
| 2026-05-03 22:51 | 38.73505 | -110.45444 | 39945 ft | 477 kts | 234° |
| 2026-05-03 22:51 | 38.69500 | -110.52293 | 39987 ft | 482 kts | 234° |
| 2026-05-03 22:52 | 38.65490 | -110.59118 | 39988 ft | 475 kts | 234° |
| 2026-05-03 22:52 | 38.61568 | -110.65775 | 39965 ft | 465 kts | 235° |
| 2026-05-03 22:53 | 38.58330 | -110.71260 | 39969 ft | 466 kts | 235° |
| 2026-05-03 22:53 | 38.53752 | -110.78998 | 39973 ft | 467 kts | 234° |
| 2026-05-03 22:54 | 38.50483 | -110.84510 | 39974 ft | 468 kts | 234° |
| 2026-05-03 22:54 | 38.46541 | -110.91146 | 39974 ft | 470 kts | 234° |
| 2026-05-03 22:55 | 38.42583 | -110.97795 | 39970 ft | 471 kts | 234° |
| 2026-05-03 22:55 | 38.38618 | -111.04442 | 39962 ft | 470 kts | 234° |
| 2026-05-03 22:56 | 38.34674 | -111.11041 | 39950 ft | 467 kts | 234° |
| 2026-05-03 22:56 | 38.30768 | -111.17562 | 39938 ft | 463 kts | 235° |
| 2026-05-03 22:57 | 38.27629 | -111.22793 | 39928 ft | 461 kts | 235° |
| 2026-05-03 22:57 | 38.23751 | -111.29246 | 39919 ft | 458 kts | 235° |
| 2026-05-03 22:58 | 38.19886 | -111.35664 | 39913 ft | 456 kts | 235° |
| 2026-05-03 22:58 | 38.16030 | -111.42053 | 39910 ft | 455 kts | 235° |
| 2026-05-03 22:59 | 38.12175 | -111.48430 | 39911 ft | 454 kts | 235° |
| 2026-05-03 22:59 | 38.08339 | -111.54763 | 39955 ft | 451 kts | 235° |
| 2026-05-03 23:00 | 38.04586 | -111.60944 | 39986 ft | 438 kts | 236° |
| 2026-05-03 23:00 | 38.00895 | -111.67016 | 40010 ft | 433 kts | 236° |
| 2026-05-03 23:01 | 37.97217 | -111.73053 | 40033 ft | 433 kts | 236° |
| 2026-05-03 23:01 | 37.93534 | -111.79088 | 40052 ft | 433 kts | 236° |
| 2026-05-03 23:02 | 37.89851 | -111.85112 | 40070 ft | 432 kts | 236° |
| 2026-05-03 23:02 | 37.86164 | -111.91131 | 40084 ft | 432 kts | 236° |
| 2026-05-03 23:03 | 37.82487 | -111.97146 | 40096 ft | 432 kts | 236° |
| 2026-05-03 23:03 | 37.78814 | -112.03159 | 40105 ft | 432 kts | 236° |
| 2026-05-03 23:04 | 37.75118 | -112.09148 | 40113 ft | 432 kts | 236° |
| 2026-05-03 23:04 | 37.71417 | -112.15128 | 40118 ft | 432 kts | 236° |
| 2026-05-03 23:05 | 37.67710 | -112.21110 | 40115 ft | 432 kts | 236° |
| 2026-05-03 23:05 | 37.64000 | -112.27082 | 40105 ft | 432 kts | 235° |
| 2026-05-03 23:06 | 37.59995 | -112.32734 | 40094 ft | 433 kts | 231° |
| 2026-05-03 23:06 | 37.55808 | -112.38209 | 40082 ft | 433 kts | 231° |
| 2026-05-03 23:07 | 37.51636 | -112.43691 | 40070 ft | 433 kts | 231° |
| 2026-05-03 23:07 | 37.47512 | -112.49127 | 40059 ft | 432 kts | 231° |
| 2026-05-03 23:08 | 37.43359 | -112.54603 | 40075 ft | 434 kts | 231° |
| 2026-05-03 23:08 | 37.39184 | -112.60114 | 40070 ft | 435 kts | 231° |
| 2026-05-03 23:09 | 37.35043 | -112.65641 | 40044 ft | 433 kts | 231° |
| 2026-05-03 23:09 | 37.31695 | -112.70081 | 40029 ft | 429 kts | 231° |
| 2026-05-03 23:10 | 37.27598 | -112.75491 | 40006 ft | 426 kts | 231° |
| 2026-05-03 23:10 | 37.23510 | -112.80872 | 39970 ft | 425 kts | 231° |
| 2026-05-03 23:11 | 37.19439 | -112.86221 | 39961 ft | 423 kts | 231° |
| 2026-05-03 23:11 | 37.15379 | -112.91544 | 39962 ft | 422 kts | 231° |
| 2026-05-03 23:12 | 37.11325 | -112.96850 | 39964 ft | 421 kts | 231° |
| 2026-05-03 23:12 | 37.07280 | -113.02136 | 39967 ft | 420 kts | 231° |
| 2026-05-03 23:13 | 37.03241 | -113.07404 | 39968 ft | 419 kts | 231° |
| 2026-05-03 23:13 | 36.99203 | -113.12664 | 39965 ft | 419 kts | 231° |
| 2026-05-03 23:14 | 36.95161 | -113.17919 | 39948 ft | 419 kts | 231° |
| 2026-05-03 23:14 | 36.91112 | -113.23175 | 39931 ft | 420 kts | 231° |
| 2026-05-03 23:15 | 36.87048 | -113.28442 | 39911 ft | 422 kts | 231° |
| 2026-05-03 23:15 | 36.82994 | -113.33687 | 39892 ft | 423 kts | 231° |
| 2026-05-03 23:16 | 36.78902 | -113.38973 | 39875 ft | 424 kts | 231° |
| 2026-05-03 23:16 | 36.74799 | -113.44264 | 39862 ft | 424 kts | 231° |
| 2026-05-03 23:17 | 36.70694 | -113.49550 | 39851 ft | 425 kts | 231° |
| 2026-05-03 23:17 | 36.66582 | -113.54835 | 39842 ft | 425 kts | 231° |
| 2026-05-03 23:18 | 36.62469 | -113.60115 | 39835 ft | 424 kts | 231° |
| 2026-05-03 23:18 | 36.58354 | -113.65386 | 39829 ft | 424 kts | 231° |
| 2026-05-03 23:19 | 36.54244 | -113.70644 | 39775 ft | 423 kts | 231° |
| 2026-05-03 23:19 | 36.50156 | -113.75866 | 39767 ft | 421 kts | 231° |
| 2026-05-03 23:20 | 36.46068 | -113.81078 | 39764 ft | 420 kts | 231° |
| 2026-05-03 23:20 | 36.41989 | -113.86270 | 39762 ft | 419 kts | 231° |
| 2026-05-03 23:21 | 36.37919 | -113.91443 | 39760 ft | 418 kts | 231° |
| 2026-05-03 23:21 | 36.33859 | -113.96596 | 39758 ft | 417 kts | 231° |
| 2026-05-03 23:22 | 36.28745 | -114.03107 | 39749 ft | 413 kts | 231° |
| 2026-05-03 23:22 | 36.24720 | -114.08208 | 39750 ft | 413 kts | 231° |
| 2026-05-03 23:23 | 36.20694 | -114.13280 | 39748 ft | 413 kts | 231° |
| 2026-05-03 23:23 | 36.16666 | -114.18344 | 39748 ft | 413 kts | 231° |
| 2026-05-03 23:24 | 36.12641 | -114.23400 | 39748 ft | 413 kts | 231° |
| 2026-05-03 23:24 | 36.08605 | -114.28467 | 39746 ft | 414 kts | 231° |
| 2026-05-03 23:25 | 36.04718 | -114.33715 | 39787 ft | 420 kts | 233° |
| 2026-05-03 23:25 | 36.00794 | -114.39231 | 39800 ft | 429 kts | 232° |
| 2026-05-03 23:26 | 35.96832 | -114.44731 | 39811 ft | 434 kts | 232° |
| 2026-05-03 23:26 | 35.92795 | -114.50307 | 39822 ft | 438 kts | 232° |
| 2026-05-03 23:27 | 35.88716 | -114.55930 | 39834 ft | 442 kts | 231° |
| 2026-05-03 23:27 | 35.84639 | -114.61632 | 39850 ft | 446 kts | 231° |
| 2026-05-03 23:28 | 35.80479 | -114.67372 | 39865 ft | 452 kts | 231° |
| 2026-05-03 23:28 | 35.76231 | -114.73194 | 39891 ft | 461 kts | 230° |
| 2026-05-03 23:29 | 35.71897 | -114.79123 | 39926 ft | 470 kts | 230° |
| 2026-05-03 23:29 | 35.67474 | -114.85166 | 39953 ft | 480 kts | 229° |
| 2026-05-03 23:30 | 35.62981 | -114.91349 | 39955 ft | 488 kts | 229° |
| 2026-05-03 23:30 | 35.58456 | -114.97544 | 39943 ft | 484 kts | 229° |
| 2026-05-03 23:31 | 35.53986 | -115.03649 | 39926 ft | 476 kts | 230° |
| 2026-05-03 23:31 | 35.49591 | -115.09633 | 39912 ft | 470 kts | 229° |
| 2026-05-03 23:32 | 35.45111 | -115.15447 | 39895 ft | 466 kts | 229° |
| 2026-05-03 23:32 | 35.40690 | -115.21176 | 39874 ft | 458 kts | 229° |
| 2026-05-03 23:33 | 35.36372 | -115.26783 | 39851 ft | 454 kts | 229° |
| 2026-05-03 23:33 | 35.32014 | -115.32499 | 39887 ft | 463 kts | 229° |
| 2026-05-03 23:34 | 35.27665 | -115.38164 | 39818 ft | 452 kts | 230° |
| 2026-05-03 23:34 | 35.23372 | -115.43718 | 39795 ft | 445 kts | 230° |
| 2026-05-03 23:35 | 35.20407 | -115.47546 | 39785 ft | 442 kts | 231° |
| 2026-05-03 23:35 | 35.16207 | -115.52962 | 39772 ft | 436 kts | 231° |
| 2026-05-03 23:36 | 35.12048 | -115.58326 | 39759 ft | 433 kts | 231° |
| 2026-05-03 23:36 | 35.07922 | -115.63617 | 39735 ft | 426 kts | 231° |
| 2026-05-03 23:37 | 35.03852 | -115.68828 | 39720 ft | 422 kts | 231° |
| 2026-05-03 23:37 | 34.99801 | -115.74004 | 39716 ft | 422 kts | 231° |
| 2026-05-03 23:38 | 34.95743 | -115.79183 | 39714 ft | 423 kts | 231° |
| 2026-05-03 23:38 | 34.91701 | -115.84335 | 39714 ft | 423 kts | 231° |
| 2026-05-03 23:39 | 34.87637 | -115.89527 | 39716 ft | 423 kts | 231° |
| 2026-05-03 23:39 | 34.83595 | -115.94720 | 39720 ft | 422 kts | 231° |
| 2026-05-03 23:40 | 34.79546 | -115.99886 | 39729 ft | 423 kts | 231° |
| 2026-05-03 23:40 | 34.76137 | -116.04222 | 39739 ft | 423 kts | 231° |
| 2026-05-03 23:41 | 34.74126 | -116.06775 | 39596 ft | 419 kts | 231° |
| 2026-05-03 23:41 | 34.72123 | -116.09317 | 39073 ft | 415 kts | 231° |
| 2026-05-03 23:41 | 34.70135 | -116.11838 | 38502 ft | 410 kts | 231° |
| 2026-05-03 23:41 | 34.68192 | -116.14299 | 38107 ft | 397 kts | 231° |
| 2026-05-03 23:42 | 34.66313 | -116.16678 | 37748 ft | 383 kts | 232° |
| 2026-05-03 23:42 | 34.64496 | -116.18977 | 37393 ft | 374 kts | 232° |
| 2026-05-03 23:42 | 34.62713 | -116.21254 | 37024 ft | 373 kts | 232° |
| 2026-05-03 23:42 | 34.60912 | -116.23543 | 36693 ft | 376 kts | 232° |
| 2026-05-03 23:43 | 34.59099 | -116.25837 | 36343 ft | 375 kts | 232° |
| 2026-05-03 23:43 | 34.57287 | -116.28121 | 35952 ft | 375 kts | 232° |
| 2026-05-03 23:43 | 34.55476 | -116.30399 | 35595 ft | 376 kts | 232° |
| 2026-05-03 23:43 | 34.53658 | -116.32684 | 35236 ft | 377 kts | 232° |
| 2026-05-03 23:44 | 34.51837 | -116.34971 | 34900 ft | 377 kts | 232° |
| 2026-05-03 23:44 | 34.50013 | -116.37261 | 34511 ft | 378 kts | 231° |
| 2026-05-03 23:44 | 34.48179 | -116.39561 | 34080 ft | 379 kts | 231° |
| 2026-05-03 23:44 | 34.46344 | -116.41862 | 33652 ft | 381 kts | 231° |
| 2026-05-03 23:45 | 34.44503 | -116.44170 | 33119 ft | 381 kts | 231° |
| 2026-05-03 23:45 | 34.42689 | -116.46521 | 32346 ft | 380 kts | 236° |
| 2026-05-03 23:45 | 34.41191 | -116.49107 | 31455 ft | 381 kts | 241° |
| 2026-05-03 23:45 | 34.39875 | -116.51905 | 30545 ft | 384 kts | 244° |
| 2026-05-03 23:46 | 34.38687 | -116.54816 | 29548 ft | 388 kts | 246° |
| 2026-05-03 23:46 | 34.37524 | -116.57779 | 28666 ft | 390 kts | 245° |
| 2026-05-03 23:46 | 34.36334 | -116.60710 | 28248 ft | 384 kts | 244° |
| 2026-05-03 23:46 | 34.35161 | -116.63551 | 27742 ft | 371 kts | 244° |
| 2026-05-03 23:47 | 34.34028 | -116.66292 | 27262 ft | 358 kts | 244° |
| 2026-05-03 23:47 | 34.32942 | -116.68945 | 26816 ft | 345 kts | 245° |
| 2026-05-03 23:47 | 34.31925 | -116.71513 | 26402 ft | 332 kts | 245° |
| 2026-05-03 23:47 | 34.30938 | -116.73990 | 26005 ft | 321 kts | 244° |
| 2026-05-03 23:48 | 34.29986 | -116.76365 | 25869 ft | 307 kts | 244° |
| 2026-05-03 23:48 | 34.29070 | -116.78640 | 25618 ft | 296 kts | 244° |
| 2026-05-03 23:48 | 34.28176 | -116.80853 | 25080 ft | 292 kts | 244° |
| 2026-05-03 23:48 | 34.27284 | -116.83059 | 24372 ft | 292 kts | 244° |
| 2026-05-03 23:49 | 34.26392 | -116.85263 | 23792 ft | 289 kts | 244° |
| 2026-05-03 23:49 | 34.25511 | -116.87440 | 23119 ft | 289 kts | 243° |
| 2026-05-03 23:49 | 34.25212 | -116.88178 | 22877 ft | 290 kts | 243° |
| 2026-05-03 23:49 | 34.24466 | -116.90020 | 22324 ft | 290 kts | 243° |
| 2026-05-03 23:50 | 34.23583 | -116.92200 | 21698 ft | 289 kts | 243° |
| 2026-05-03 23:50 | 34.22690 | -116.94403 | 21081 ft | 295 kts | 242° |
| 2026-05-03 23:50 | 34.21782 | -116.96642 | 20670 ft | 296 kts | 242° |
| 2026-05-03 23:50 | 34.20942 | -116.98894 | 20416 ft | 294 kts | 246° |
| 2026-05-03 23:51 | 34.20257 | -117.01208 | 20120 ft | 293 kts | 249° |
| 2026-05-03 23:51 | 34.19650 | -117.03561 | 19744 ft | 294 kts | 250° |
| 2026-05-03 23:51 | 34.19044 | -117.05926 | 19370 ft | 294 kts | 249° |
| 2026-05-03 23:51 | 34.18485 | -117.08025 | 19041 ft | 295 kts | 249° |
| 2026-05-03 23:52 | 34.18036 | -117.09694 | 18796 ft | 295 kts | 248° |
| 2026-05-03 23:52 | 34.17397 | -117.12049 | 18430 ft | 296 kts | 248° |
| 2026-05-03 23:52 | 34.16755 | -117.14410 | 18087 ft | 296 kts | 248° |
| 2026-05-03 23:52 | 34.16114 | -117.16780 | 17705 ft | 297 kts | 248° |
| 2026-05-03 23:53 | 34.15721 | -117.18221 | 17508 ft | 297 kts | 248° |
| 2026-05-03 23:53 | 34.15072 | -117.20588 | 17224 ft | 296 kts | 248° |
| 2026-05-03 23:53 | 34.14422 | -117.22948 | 16861 ft | 297 kts | 248° |
| 2026-05-03 23:53 | 34.13767 | -117.25321 | 16495 ft | 299 kts | 248° |
| 2026-05-03 23:54 | 34.13405 | -117.26632 | 16381 ft | 296 kts | 248° |
| 2026-05-03 23:54 | 34.12742 | -117.29030 | 16040 ft | 297 kts | 248° |
| 2026-05-03 23:54 | 34.12083 | -117.31411 | 15641 ft | 300 kts | 248° |
| 2026-05-03 23:54 | 34.11425 | -117.33788 | 15365 ft | 298 kts | 248° |
| 2026-05-03 23:55 | 34.10768 | -117.36161 | 15104 ft | 297 kts | 248° |
| 2026-05-03 23:55 | 34.10310 | -117.37837 | 14890 ft | 297 kts | 249° |
| 2026-05-03 23:55 | 34.09698 | -117.40264 | 14585 ft | 297 kts | 250° |
| 2026-05-03 23:55 | 34.09117 | -117.42649 | 14303 ft | 296 kts | 249° |
| 2026-05-03 23:56 | 34.08526 | -117.45027 | 14063 ft | 295 kts | 249° |
| 2026-05-03 23:56 | 34.07934 | -117.47389 | 13993 ft | 293 kts | 249° |
| 2026-05-03 23:56 | 34.07342 | -117.49712 | 13693 ft | 289 kts | 247° |
| 2026-05-03 23:56 | 34.06628 | -117.51981 | 13249 ft | 289 kts | 244° |
| 2026-05-03 23:57 | 34.05831 | -117.54199 | 12813 ft | 290 kts | 242° |
| 2026-05-03 23:57 | 34.05157 | -117.55989 | 12449 ft | 291 kts | 242° |
| 2026-05-03 23:57 | 34.04326 | -117.58226 | 12083 ft | 289 kts | 242° |
| 2026-05-03 23:57 | 34.03533 | -117.60401 | 12006 ft | 276 kts | 242° |
| 2026-05-03 23:58 | 34.02775 | -117.62491 | 11950 ft | 271 kts | 242° |
| 2026-05-03 23:58 | 34.02009 | -117.64611 | 11532 ft | 279 kts | 242° |
| 2026-05-03 23:58 | 34.01247 | -117.66732 | 11119 ft | 281 kts | 244° |
| 2026-05-03 23:58 | 34.00754 | -117.69019 | 10770 ft | 285 kts | 258° |
| 2026-05-03 23:59 | 34.00671 | -117.71408 | 10424 ft | 286 kts | 264° |
| 2026-05-03 23:59 | 34.00567 | -117.73787 | 10073 ft | 283 kts | 260° |
| 2026-05-03 23:59 | 34.00303 | -117.76127 | 9735 ft | 281 kts | 257° |
| 2026-05-03 23:59 | 33.99996 | -117.78448 | 9378 ft | 278 kts | 258° |
| 2026-05-04 00:00 | 33.99745 | -117.80748 | 9090 ft | 275 kts | 259° |
| 2026-05-04 00:00 | 33.99512 | -117.83033 | 8754 ft | 274 kts | 259° |
| 2026-05-04 00:00 | 33.99270 | -117.85304 | 8408 ft | 274 kts | 259° |
| 2026-05-04 00:00 | 33.99026 | -117.87579 | 8059 ft | 273 kts | 260° |
| 2026-05-04 00:01 | 33.98786 | -117.89839 | 7709 ft | 273 kts | 260° |
| 2026-05-04 00:01 | 33.98544 | -117.92123 | 7355 ft | 273 kts | 261° |
| 2026-05-04 00:01 | 33.98303 | -117.94394 | 7002 ft | 273 kts | 261° |
| 2026-05-04 00:01 | 33.98063 | -117.96664 | 6649 ft | 273 kts | 261° |
| 2026-05-04 00:02 | 33.97822 | -117.98943 | 6293 ft | 273 kts | 261° |
| 2026-05-04 00:02 | 33.97588 | -118.01170 | 5944 ft | 268 kts | 261° |
| 2026-05-04 00:02 | 33.97354 | -118.03394 | 5597 ft | 262 kts | 262° |
| 2026-05-04 00:02 | 33.97127 | -118.05552 | 5264 ft | 256 kts | 262° |
| 2026-05-04 00:03 | 33.96906 | -118.07657 | 4939 ft | 251 kts | 262° |
| 2026-05-04 00:03 | 33.96690 | -118.09718 | 4620 ft | 246 kts | 262° |
| 2026-05-04 00:03 | 33.96480 | -118.11732 | 4317 ft | 238 kts | 262° |
| 2026-05-04 00:03 | 33.96279 | -118.13657 | 4008 ft | 230 kts | 262° |
| 2026-05-04 00:04 | 33.96083 | -118.15534 | 3714 ft | 221 kts | 262° |
| 2026-05-04 00:04 | 33.95896 | -118.17331 | 3438 ft | 211 kts | 262° |
| 2026-05-04 00:04 | 33.95718 | -118.19046 | 3169 ft | 200 kts | 262° |
| 2026-05-04 00:04 | 33.95550 | -118.20658 | 2922 ft | 188 kts | 262° |
| 2026-05-04 00:05 | 33.95393 | -118.22175 | 2671 ft | 177 kts | 262° |
| 2026-05-04 00:05 | 33.95246 | -118.23592 | 2461 ft | 163 kts | 262° |
| 2026-05-04 00:05 | 33.95113 | -118.24875 | 2255 ft | 147 kts | 262° |
| 2026-05-04 00:05 | 33.94989 | -118.26073 | 2084 ft | 141 kts | 262° |
| 2026-05-04 00:06 | 33.94870 | -118.27236 | 1911 ft | 140 kts | 262° |
| 2026-05-04 00:06 | 33.94747 | -118.28401 | 1731 ft | 139 kts | 261° |
| 2026-05-04 00:06 | 33.94619 | -118.29537 | 1540 ft | 137 kts | 261° |
| 2026-05-04 00:06 | 33.94489 | -118.30676 | 1341 ft | 134 kts | 261° |
| 2026-05-04 00:07 | 33.94372 | -118.31779 | 1205 ft | 134 kts | 262° |
| 2026-05-04 00:07 | 33.94267 | -118.32877 | 1006 ft | 130 kts | 263° |
| 2026-05-04 00:07 | 33.94168 | -118.33972 | 849 ft | 133 kts | 264° |
| 2026-05-04 00:07 | 33.94063 | -118.35087 | 668 ft | 134 kts | 263° |
| 2026-05-04 00:08 | 33.93949 | -118.36195 | 500 ft | 133 kts | 263° |
| 2026-05-04 00:08 | 33.93838 | -118.37306 | 307 ft | 134 kts | 263° |
| 2026-05-04 00:08 | 33.93723 | -118.38410 | 160 ft | 131 kts | 263° |
| 2026-05-04 00:08 | 33.93620 | -118.39395 | 141 ft | 100 kts | 263° |
| 2026-05-04 00:09 | 33.93561 | -118.39968 | 140 ft | 40 kts | 263° |
| 2026-05-04 00:09 | 33.93566 | -118.40199 | 140 ft | 22 kts | 288° |
| 2026-05-04 00:09 | 33.93613 | -118.40364 | 140 ft | 21 kts | 281° |
| 2026-05-04 00:09 | 33.93614 | -118.40538 | 140 ft | 20 kts | 263° |
| 2026-05-04 00:10 | 33.93597 | -118.40701 | 140 ft | 16 kts | 263° |
| 2026-05-04 00:10 | 33.93591 | -118.40780 | 140 ft | 9 kts | 270° |
| 2026-05-04 00:10 | 33.93595 | -118.40818 | 140 ft | 0 kts | 284° |
| 2026-05-04 00:11 | 33.93598 | -118.40831 | 140 ft | 8 kts | 284° |
| 2026-05-04 00:12 | 33.93640 | -118.40903 | 140 ft | 11 kts | 339° |
| 2026-05-04 00:12 | 33.93692 | -118.40914 | 140 ft | 6 kts | 352° |
| 2026-05-04 00:12 | 33.93733 | -118.40920 | 140 ft | 6 kts | 353° |
| 2026-05-04 00:12 | 33.93775 | -118.40972 | 140 ft | 17 kts | 274° |
| 2026-05-04 00:13 | 33.93762 | -118.41117 | 140 ft | 16 kts | 264° |
| 2026-05-04 00:13 | 33.93790 | -118.41166 | 140 ft | 6 kts | 350° |
| 2026-05-04 00:13 | 33.93832 | -118.41173 | 140 ft | 6 kts | 352° |
| 2026-05-04 00:13 | 33.93873 | -118.41180 | 140 ft | 6 kts | 352° |
| 2026-05-04 00:14 | 33.93913 | -118.41185 | 140 ft | 6 kts | 6° |
| 2026-05-04 00:14 | 33.93932 | -118.41150 | 140 ft | 6 kts | 83° |
| 2026-05-04 00:14 | 33.93937 | -118.41104 | 140 ft | 5 kts | 83° |
| 2026-05-04 00:14 | 33.93940 | -118.41073 | 140 ft | 0 kts | 82° |